Terminal Aerodrome Forecast
Issued by NWS

Home | Current Version | Previous Version | Text Only | Print | Product List | Glossary On
Versions: 1 2 3 4 5 6 7 8 9 10 11 12 13 14 15 16 17 18 19
000
FTUS41 KGYX 220530
TAFAUG
TAF
KAUG 220530Z 2206/2306 09004KT P6SM OVC007
     FM221200 06006KT P6SM OVC020
     FM221600 VRB05KT P6SM OVC050=

USA.gov is the U.S. government's official web portal to all federal, state and local government web resources and services.